Weerspreuk van de week. Wanneer de oostenwind tegen den avond gaat liggen, waait hij ligt de volgende dag opnieuw.
Het weer levert geen direct gevaar op.    Er zijn geen waarschuwingen afgegeven.


Onweer radar Meer informatie blitzortung!


Regen radar Meer informatie rain snow radar


Bekijk deze sites ook eens:

FPL Automotive (TIP)

Autostekkers.nl (TIP)

Over Luyksgestel

De Kempen, mijn omgeving

BOL.com

Weerstation Noordbergum

Inktweb

Weerstation Hapert

Weerstation Hoogeloon

Weerstation Son&Breugel

Weerstation Castaert

Smartphonehoesjes

Weerstation Tilburg Reeshof

Weerstation Scheulder

Weerverwachting Samos

Samos actueel

Weerwoord (forum)

Griekenlandforum

Vakantie naar Samos

Zomerzon

Canon

Beleef de lente

Wolven in Nederland



METAR rapporten vliegvelden

   
EBAW - Antwerp
Gewijzigd: 19-07-2019 07:50
Licht bewolkt  
Licht bewolkt  
   Wind: ZW 11.1 km/h
Wind: ZW 11.1 km/h
Temperatuur: 17°C
Dauwpunt: 13°C
Vochtigheid: 77%
Barometer: 1013 hPa
Bewolking: Licht bewolkt
Zicht: meer dan 10 km
Bewolking: Licht bewolkt 3000 ft
EBAW 190550Z 22006KT 200V260 9999 FEW030 17/13 Q1013 NOSIG
EBLG - Liège
Gewijzigd: 19-07-2019 07:50
Licht bewolkt  
Licht bewolkt  
   Wind: ZW 14.8 km/h
Wind: ZW 14.8 km/h
Temperatuur: 16°C
Dauwpunt: 13°C
Vochtigheid: 83%
Barometer: 1014 hPa
Bewolking: Licht bewolkt
Zicht: meer dan 10 km
Bewolking: Licht bewolkt 4000 ft
EBLG 190550Z 23008KT 9999 FEW040 16/13 Q1014 NOSIG
EBCV - Mons/Bergen
Gewijzigd: 19-07-2019 07:55
Bewolking  
Bewolking  
   Wind: ZW 9.3 km/h
Wind: ZW 9.3 km/h
Temperatuur: 16°C
Dauwpunt: 14°C
Vochtigheid: 88%
Barometer: 1015 hPa
Bewolking: Bewolking
Zicht: meer dan 10 km
Bewolking: Bewolking 10000 ft
EBCV 190555Z AUTO 22005KT 9999 OVC100/// 16/14 Q1015 BLU
EHBK - Maastricht
Gewijzigd: 19-07-2019 07:55
Licht bewolkt  
Licht bewolkt  
   Wind: WZW 9.3 km/h
Wind: WZW 9.3 km/h
Temperatuur: 17°C
Dauwpunt: 13°C
Vochtigheid: 77%
Barometer: 1014 hPa
Bewolking: Licht bewolkt
Zicht: meer dan 10 km
Bewolking: Licht bewolkt 1300 ft
EHBK 190555Z AUTO 24005KT 200V300 9999 FEW013 17/13 Q1014 NOSIG
ELLX - Luxemburg
Gewijzigd: 19-07-2019 07:50
Grotendeels bewolkt  
Grotendeels bewolkt  
   Wind: Westen 14.8 km/h
Wind: Westen 14.8 km/h
Temperatuur: 16°C
Dauwpunt: 15°C
Vochtigheid: 94%
Barometer: 1016 hPa
Bewolking: Grotendeels bewolkt
Zicht: meer dan 10 km
Bewolking: Gedeeltelijk bewolkt 300 ft,
Grotendeels bewolkt 600 ft
ELLX 190550Z 26008KT 9999 SCT003 BKN006 16/15 Q1016 NOSIG
EBOS - Oostende
Gewijzigd: 19-07-2019 07:50
Helder  
Helder  
   Wind: ZW 7.4 km/h
Wind: ZW 7.4 km/h
Temperatuur: 14°C
Dauwpunt: 13°C
Vochtigheid: 94%
Barometer: 1013 hPa
Zicht: meer dan 10 km
Bewolking: Helder
EBOS 190550Z 22004KT 200V260 CAVOK 14/13 Q1013 NOSIG

Script ontwikkeld door  Saratoga-weather.org Aangepast voor de template door  Weerstation Leuven

U vindt ons ook hier:

Het Weer Aktueel

UK Metoffice

European Weather Network

Weather Underground

AWEKAS



Lekker winkelen zonder zorgen - Gratis verzending en retour